sensor_id;sensor_type;location;lat;lon;timestamp;temperature;humidity
18884;DHT22;9574;47.282;9.640;2023-01-19T00:01:15;0.60;99.90
18884;DHT22;9574;47.282;9.640;2023-01-19T00:03:43;0.50;99.90
18884;DHT22;9574;47.282;9.640;2023-01-19T00:06:10;0.50;99.90
18884;DHT22;9574;47.282;9.640;2023-01-19T00:08:38;0.60;99.90
18884;DHT22;9574;47.282;9.640;2023-01-19T00:11:05;0.60;99.90
18884;DHT22;9574;47.282;9.640;2023-01-19T00:13:32;0.40;99.90
18884;DHT22;9574;47.282;9.640;2023-01-19T00:15:59;0.30;99.90
18884;DHT22;9574;47.282;9.640;2023-01-19T00:18:26;0.20;99.90
18884;DHT22;9574;47.282;9.640;2023-01-19T00:20:53;0.10;99.90
18884;DHT22;9574;47.282;9.640;2023-01-19T00:23:20;0.10;99.90
18884;DHT22;9574;47.282;9.640;2023-01-19T00:25:49;0.00;99.90
18884;DHT22;9574;47.282;9.640;2023-01-19T00:28:17;0.00;99.90
18884;DHT22;9574;47.282;9.640;2023-01-19T00:30:44;0.00;99.90
18884;DHT22;9574;47.282;9.640;2023-01-19T00:33:11;0.00;99.90
18884;DHT22;9574;47.282;9.640;2023-01-19T00:35:40;0.20;99.90
18884;DHT22;9574;47.282;9.640;2023-01-19T00:38:09;0.40;99.90
18884;DHT22;9574;47.282;9.640;2023-01-19T00:40:36;0.60;99.90
18884;DHT22;9574;47.282;9.640;2023-01-19T00:43:04;0.50;99.90
18884;DHT22;9574;47.282;9.640;2023-01-19T00:45:32;0.50;99.90
18884;DHT22;9574;47.282;9.640;2023-01-19T00:47:59;0.40;99.90
18884;DHT22;9574;47.282;9.640;2023-01-19T00:50:27;0.40;99.90
18884;DHT22;9574;47.282;9.640;2023-01-19T00:52:56;0.30;99.90
18884;DHT22;9574;47.282;9.640;2023-01-19T00:55:26;0.20;99.90
18884;DHT22;9574;47.282;9.640;2023-01-19T00:57:53;0.20;99.90
18884;DHT22;9574;47.282;9.640;2023-01-19T01:00:22;0.10;99.90
18884;DHT22;9574;47.282;9.640;2023-01-19T01:02:51;0.10;99.90
18884;DHT22;9574;47.282;9.640;2023-01-19T01:05:18;0.10;99.90
18884;DHT22;9574;47.282;9.640;2023-01-19T01:07:46;0.10;99.90
18884;DHT22;9574;47.282;9.640;2023-01-19T01:10:17;0.10;99.90
18884;DHT22;9574;47.282;9.640;2023-01-19T01:12:45;0.10;99.90
18884;DHT22;9574;47.282;9.640;2023-01-19T01:15:13;0.00;99.90
18884;DHT22;9574;47.282;9.640;2023-01-19T01:17:42;0.00;99.90
18884;DHT22;9574;47.282;9.640;2023-01-19T01:20:14;0.00;99.90
18884;DHT22;9574;47.282;9.640;2023-01-19T01:22:46;0.00;99.90
18884;DHT22;9574;47.282;9.640;2023-01-19T01:25:15;0.00;99.90
18884;DHT22;9574;47.282;9.640;2023-01-19T01:27:42;0.10;99.90
18884;DHT22;9574;47.282;9.640;2023-01-19T01:30:11;0.10;99.90
18884;DHT22;9574;47.282;9.640;2023-01-19T01:32:41;0.10;99.90
18884;DHT22;9574;47.282;9.640;2023-01-19T01:35:09;0.30;99.90
18884;DHT22;9574;47.282;9.640;2023-01-19T01:37:37;0.20;99.90
18884;DHT22;9574;47.282;9.640;2023-01-19T01:40:05;0.10;99.90
18884;DHT22;9574;47.282;9.640;2023-01-19T01:42:33;0.00;99.90
18884;DHT22;9574;47.282;9.640;2023-01-19T01:45:01;-0.10;99.90
18884;DHT22;9574;47.282;9.640;2023-01-19T01:47:35;-0.10;99.90
18884;DHT22;9574;47.282;9.640;2023-01-19T01:50:08;-0.10;99.90
18884;DHT22;9574;47.282;9.640;2023-01-19T01:52:38;-0.10;99.90
18884;DHT22;9574;47.282;9.640;2023-01-19T01:55:07;-0.20;99.90
18884;DHT22;9574;47.282;9.640;2023-01-19T01:57:37;-0.10;99.90
18884;DHT22;9574;47.282;9.640;2023-01-19T02:00:06;-0.10;99.90
18884;DHT22;9574;47.282;9.640;2023-01-19T02:02:35;-0.10;99.90
18884;DHT22;9574;47.282;9.640;2023-01-19T02:05:23;0.00;99.90
18884;DHT22;9574;47.282;9.640;2023-01-19T02:07:55;0.00;99.90
18884;DHT22;9574;47.282;9.640;2023-01-19T02:10:42;0.00;99.90
18884;DHT22;9574;47.282;9.640;2023-01-19T02:13:29;0.00;99.90
18884;DHT22;9574;47.282;9.640;2023-01-19T02:15:58;0.20;99.90
18884;DHT22;9574;47.282;9.640;2023-01-19T02:18:29;0.60;99.90
18884;DHT22;9574;47.282;9.640;2023-01-19T02:21:04;0.80;99.90
18884;DHT22;9574;47.282;9.640;2023-01-19T02:23:40;1.00;99.90
18884;DHT22;9574;47.282;9.640;2023-01-19T02:26:11;1.10;99.90
18884;DHT22;9574;47.282;9.640;2023-01-19T02:28:41;1.20;99.90
18884;DHT22;9574;47.282;9.640;2023-01-19T02:31:09;1.20;99.90
18884;DHT22;9574;47.282;9.640;2023-01-19T02:33:36;1.10;99.90
18884;DHT22;9574;47.282;9.640;2023-01-19T02:36:04;0.80;99.90
18884;DHT22;9574;47.282;9.640;2023-01-19T02:38:34;0.60;99.90
18884;DHT22;9574;47.282;9.640;2023-01-19T02:41:06;0.70;99.90
18884;DHT22;9574;47.282;9.640;2023-01-19T02:43:35;0.80;99.90
18884;DHT22;9574;47.282;9.640;2023-01-19T02:46:03;1.00;99.90
18884;DHT22;9574;47.282;9.640;2023-01-19T02:48:30;1.00;99.90
18884;DHT22;9574;47.282;9.640;2023-01-19T02:50:58;0.70;99.90
18884;DHT22;9574;47.282;9.640;2023-01-19T02:57:04;0.40;99.90
18884;DHT22;9574;47.282;9.640;2023-01-19T02:59:47;0.30;99.90
18884;DHT22;9574;47.282;9.640;2023-01-19T03:02:32;0.20;99.90
18884;DHT22;9574;47.282;9.640;2023-01-19T03:05:16;0.20;99.90
18884;DHT22;9574;47.282;9.640;2023-01-19T03:07:53;0.20;99.90
18884;DHT22;9574;47.282;9.640;2023-01-19T03:10:27;0.10;99.90
18884;DHT22;9574;47.282;9.640;2023-01-19T03:13:00;0.10;99.90
18884;DHT22;9574;47.282;9.640;2023-01-19T03:15:34;0.10;99.90
18884;DHT22;9574;47.282;9.640;2023-01-19T03:18:05;0.00;99.90
18884;DHT22;9574;47.282;9.640;2023-01-19T03:20:34;0.10;99.90
18884;DHT22;9574;47.282;9.640;2023-01-19T03:23:06;0.40;99.90
18884;DHT22;9574;47.282;9.640;2023-01-19T03:25:36;0.50;99.90
18884;DHT22;9574;47.282;9.640;2023-01-19T03:28:06;0.30;99.90
18884;DHT22;9574;47.282;9.640;2023-01-19T03:30:37;0.20;99.90
18884;DHT22;9574;47.282;9.640;2023-01-19T03:33:08;0.20;99.90
18884;DHT22;9574;47.282;9.640;2023-01-19T03:35:38;0.10;99.90
18884;DHT22;9574;47.282;9.640;2023-01-19T03:38:13;0.10;99.90
18884;DHT22;9574;47.282;9.640;2023-01-19T03:40:41;0.20;99.90
18884;DHT22;9574;47.282;9.640;2023-01-19T03:43:10;0.20;99.90
18884;DHT22;9574;47.282;9.640;2023-01-19T03:45:38;0.20;99.90
18884;DHT22;9574;47.282;9.640;2023-01-19T03:48:06;0.50;99.90
18884;DHT22;9574;47.282;9.640;2023-01-19T03:50:33;0.70;99.90
18884;DHT22;9574;47.282;9.640;2023-01-19T03:53:04;0.60;99.90
18884;DHT22;9574;47.282;9.640;2023-01-19T03:55:32;0.60;99.90
18884;DHT22;9574;47.282;9.640;2023-01-19T03:57:59;0.60;99.90
18884;DHT22;9574;47.282;9.640;2023-01-19T04:00:28;0.40;99.90
18884;DHT22;9574;47.282;9.640;2023-01-19T04:02:55;0.30;99.90
18884;DHT22;9574;47.282;9.640;2023-01-19T04:05:22;0.20;99.90
18884;DHT22;9574;47.282;9.640;2023-01-19T04:07:49;0.10;99.90
18884;DHT22;9574;47.282;9.640;2023-01-19T04:10:16;0.00;99.90
18884;DHT22;9574;47.282;9.640;2023-01-19T04:12:44;-0.10;99.90
18884;DHT22;9574;47.282;9.640;2023-01-19T04:15:11;-0.20;99.90
18884;DHT22;9574;47.282;9.640;2023-01-19T04:17:40;0.30;99.90
18884;DHT22;9574;47.282;9.640;2023-01-19T04:20:08;0.60;99.90
18884;DHT22;9574;47.282;9.640;2023-01-19T04:22:35;0.80;99.90
18884;DHT22;9574;47.282;9.640;2023-01-19T04:25:04;0.80;99.90
18884;DHT22;9574;47.282;9.640;2023-01-19T04:27:31;0.50;99.90
18884;DHT22;9574;47.282;9.640;2023-01-19T04:29:58;0.20;99.90
18884;DHT22;9574;47.282;9.640;2023-01-19T04:32:25;0.10;99.90
18884;DHT22;9574;47.282;9.640;2023-01-19T04:34:54;0.00;99.90
18884;DHT22;9574;47.282;9.640;2023-01-19T04:37:21;-0.10;99.90
18884;DHT22;9574;47.282;9.640;2023-01-19T04:39:48;-0.10;99.90
18884;DHT22;9574;47.282;9.640;2023-01-19T04:42:15;0.00;99.90
18884;DHT22;9574;47.282;9.640;2023-01-19T04:44:42;0.40;99.90
18884;DHT22;9574;47.282;9.640;2023-01-19T04:47:09;0.70;99.90
18884;DHT22;9574;47.282;9.640;2023-01-19T04:49:36;0.90;99.90
18884;DHT22;9574;47.282;9.640;2023-01-19T04:52:05;1.00;99.90
18884;DHT22;9574;47.282;9.640;2023-01-19T04:54:32;0.90;99.90
18884;DHT22;9574;47.282;9.640;2023-01-19T04:56:59;1.00;99.90
18884;DHT22;9574;47.282;9.640;2023-01-19T04:59:26;1.10;99.90
18884;DHT22;9574;47.282;9.640;2023-01-19T05:01:53;0.80;99.90
18884;DHT22;9574;47.282;9.640;2023-01-19T05:04:20;0.50;99.90
18884;DHT22;9574;47.282;9.640;2023-01-19T05:06:47;0.20;99.90
18884;DHT22;9574;47.282;9.640;2023-01-19T05:09:16;-0.10;99.90
18884;DHT22;9574;47.282;9.640;2023-01-19T05:11:43;-0.20;99.90
18884;DHT22;9574;47.282;9.640;2023-01-19T05:14:09;-0.20;99.90
18884;DHT22;9574;47.282;9.640;2023-01-19T05:16:36;-0.30;99.90
18884;DHT22;9574;47.282;9.640;2023-01-19T05:19:03;-0.40;99.90
18884;DHT22;9574;47.282;9.640;2023-01-19T05:21:30;-0.40;99.90
18884;DHT22;9574;47.282;9.640;2023-01-19T05:23:57;-0.40;99.90
18884;DHT22;9574;47.282;9.640;2023-01-19T05:26:26;-0.50;99.90
18884;DHT22;9574;47.282;9.640;2023-01-19T05:28:53;-0.50;99.90
18884;DHT22;9574;47.282;9.640;2023-01-19T05:31:20;-0.60;99.90
18884;DHT22;9574;47.282;9.640;2023-01-19T05:33:47;-0.60;99.90
18884;DHT22;9574;47.282;9.640;2023-01-19T05:36:14;-0.60;99.90
18884;DHT22;9574;47.282;9.640;2023-01-19T05:38:41;-0.60;99.90
18884;DHT22;9574;47.282;9.640;2023-01-19T05:41:08;-0.50;99.90
18884;DHT22;9574;47.282;9.640;2023-01-19T05:43:36;-0.60;99.90
18884;DHT22;9574;47.282;9.640;2023-01-19T05:46:03;-0.70;99.90
18884;DHT22;9574;47.282;9.640;2023-01-19T05:48:30;-0.70;99.90
18884;DHT22;9574;47.282;9.640;2023-01-19T05:50:58;-0.80;99.90
18884;DHT22;9574;47.282;9.640;2023-01-19T05:53:26;-0.80;99.90
18884;DHT22;9574;47.282;9.640;2023-01-19T05:55:54;-0.90;99.90
18884;DHT22;9574;47.282;9.640;2023-01-19T05:58:24;-0.90;99.90
18884;DHT22;9574;47.282;9.640;2023-01-19T06:00:53;-0.90;99.90
18884;DHT22;9574;47.282;9.640;2023-01-19T06:03:19;-0.90;99.90
18884;DHT22;9574;47.282;9.640;2023-01-19T06:05:46;-0.90;99.90
18884;DHT22;9574;47.282;9.640;2023-01-19T06:08:13;-0.70;99.90
18884;DHT22;9574;47.282;9.640;2023-01-19T06:10:40;-0.90;99.90
18884;DHT22;9574;47.282;9.640;2023-01-19T06:13:07;-0.90;99.90
18884;DHT22;9574;47.282;9.640;2023-01-19T06:15:35;-0.50;99.90
18884;DHT22;9574;47.282;9.640;2023-01-19T06:18:04;-0.30;99.90
18884;DHT22;9574;47.282;9.640;2023-01-19T06:20:31;-0.50;99.90
18884;DHT22;9574;47.282;9.640;2023-01-19T06:22:58;-0.50;99.90
18884;DHT22;9574;47.282;9.640;2023-01-19T06:25:25;-0.70;99.90
18884;DHT22;9574;47.282;9.640;2023-01-19T06:27:52;-0.80;99.90
18884;DHT22;9574;47.282;9.640;2023-01-19T06:30:19;-0.80;99.90
18884;DHT22;9574;47.282;9.640;2023-01-19T06:32:47;-0.80;99.90
18884;DHT22;9574;47.282;9.640;2023-01-19T06:35:15;-0.90;99.90
18884;DHT22;9574;47.282;9.640;2023-01-19T06:37:42;-0.90;99.90
18884;DHT22;9574;47.282;9.640;2023-01-19T06:40:10;-0.90;99.90
18884;DHT22;9574;47.282;9.640;2023-01-19T06:42:38;-0.50;99.90
18884;DHT22;9574;47.282;9.640;2023-01-19T06:45:06;-0.60;99.90
18884;DHT22;9574;47.282;9.640;2023-01-19T06:47:34;-0.60;99.90
18884;DHT22;9574;47.282;9.640;2023-01-19T06:50:01;-0.60;99.90
18884;DHT22;9574;47.282;9.640;2023-01-19T06:52:30;-0.50;99.90
18884;DHT22;9574;47.282;9.640;2023-01-19T06:54:57;-0.20;99.90
18884;DHT22;9574;47.282;9.640;2023-01-19T06:57:24;-0.10;99.90
18884;DHT22;9574;47.282;9.640;2023-01-19T06:59:51;-0.40;99.90
18884;DHT22;9574;47.282;9.640;2023-01-19T07:02:18;-0.50;99.90
18884;DHT22;9574;47.282;9.640;2023-01-19T07:04:47;-0.20;99.90
18884;DHT22;9574;47.282;9.640;2023-01-19T07:07:15;0.00;99.90
18884;DHT22;9574;47.282;9.640;2023-01-19T07:09:44;0.00;99.90
18884;DHT22;9574;47.282;9.640;2023-01-19T07:12:11;-0.20;99.90
18884;DHT22;9574;47.282;9.640;2023-01-19T07:14:37;-0.30;99.90
18884;DHT22;9574;47.282;9.640;2023-01-19T07:17:05;-0.20;99.90
18884;DHT22;9574;47.282;9.640;2023-01-19T07:19:33;0.00;99.90
18884;DHT22;9574;47.282;9.640;2023-01-19T07:22:00;-0.30;99.90
18884;DHT22;9574;47.282;9.640;2023-01-19T07:24:28;-0.40;99.90
18884;DHT22;9574;47.282;9.640;2023-01-19T07:26:57;-0.50;99.90
18884;DHT22;9574;47.282;9.640;2023-01-19T07:29:24;-0.60;99.90
18884;DHT22;9574;47.282;9.640;2023-01-19T07:31:51;-0.70;99.90
18884;DHT22;9574;47.282;9.640;2023-01-19T07:34:19;-0.80;99.90
18884;DHT22;9574;47.282;9.640;2023-01-19T07:36:46;-0.90;99.90
18884;DHT22;9574;47.282;9.640;2023-01-19T07:39:13;-0.80;99.90
18884;DHT22;9574;47.282;9.640;2023-01-19T07:41:40;-0.90;99.90
18884;DHT22;9574;47.282;9.640;2023-01-19T07:44:09;-0.90;99.90
18884;DHT22;9574;47.282;9.640;2023-01-19T07:46:36;-0.90;99.90
18884;DHT22;9574;47.282;9.640;2023-01-19T07:49:03;-0.90;99.90
18884;DHT22;9574;47.282;9.640;2023-01-19T07:51:30;-0.90;99.90
18884;DHT22;9574;47.282;9.640;2023-01-19T07:53:57;-0.90;99.90
18884;DHT22;9574;47.282;9.640;2023-01-19T07:56:24;-0.80;99.90
18884;DHT22;9574;47.282;9.640;2023-01-19T07:58:52;-0.30;99.90
18884;DHT22;9574;47.282;9.640;2023-01-19T08:01:20;0.00;99.90
18884;DHT22;9574;47.282;9.640;2023-01-19T08:03:48;0.20;99.90
18884;DHT22;9574;47.282;9.640;2023-01-19T08:06:19;0.40;99.90
18884;DHT22;9574;47.282;9.640;2023-01-19T08:08:46;0.30;99.90
18884;DHT22;9574;47.282;9.640;2023-01-19T08:11:13;0.10;99.90
18884;DHT22;9574;47.282;9.640;2023-01-19T08:13:40;-0.20;99.90
18884;DHT22;9574;47.282;9.640;2023-01-19T08:16:07;-0.10;99.90
18884;DHT22;9574;47.282;9.640;2023-01-19T08:18:36;0.10;99.90
18884;DHT22;9574;47.282;9.640;2023-01-19T08:21:03;0.10;99.90
18884;DHT22;9574;47.282;9.640;2023-01-19T08:23:30;-0.20;99.90
18884;DHT22;9574;47.282;9.640;2023-01-19T08:25:57;-0.30;99.90
18884;DHT22;9574;47.282;9.640;2023-01-19T08:28:24;-0.30;99.90
18884;DHT22;9574;47.282;9.640;2023-01-19T08:30:51;-0.30;99.90
18884;DHT22;9574;47.282;9.640;2023-01-19T08:33:20;-0.40;99.90
18884;DHT22;9574;47.282;9.640;2023-01-19T08:35:50;-0.40;99.90
18884;DHT22;9574;47.282;9.640;2023-01-19T08:38:17;-0.50;99.90
18884;DHT22;9574;47.282;9.640;2023-01-19T08:40:44;-0.50;99.90
18884;DHT22;9574;47.282;9.640;2023-01-19T08:43:13;-0.50;99.90
18884;DHT22;9574;47.282;9.640;2023-01-19T08:45:42;-0.50;99.90
18884;DHT22;9574;47.282;9.640;2023-01-19T08:48:13;-0.50;99.90
18884;DHT22;9574;47.282;9.640;2023-01-19T08:50:40;-0.30;99.90
18884;DHT22;9574;47.282;9.640;2023-01-19T08:53:09;-0.30;99.90
18884;DHT22;9574;47.282;9.640;2023-01-19T08:55:36;-0.10;99.90
18884;DHT22;9574;47.282;9.640;2023-01-19T08:58:04;0.20;99.90
18884;DHT22;9574;47.282;9.640;2023-01-19T09:00:34;0.30;99.90
18884;DHT22;9574;47.282;9.640;2023-01-19T09:03:03;0.60;99.90
18884;DHT22;9574;47.282;9.640;2023-01-19T09:05:32;0.70;99.90
18884;DHT22;9574;47.282;9.640;2023-01-19T09:08:02;1.00;99.90
18884;DHT22;9574;47.282;9.640;2023-01-19T09:10:30;1.10;99.90
18884;DHT22;9574;47.282;9.640;2023-01-19T09:13:00;1.10;99.90
18884;DHT22;9574;47.282;9.640;2023-01-19T09:15:28;1.30;99.90
18884;DHT22;9574;47.282;9.640;2023-01-19T09:17:57;1.50;99.90
18884;DHT22;9574;47.282;9.640;2023-01-19T09:20:24;1.60;99.90
18884;DHT22;9574;47.282;9.640;2023-01-19T09:22:51;1.70;99.90
18884;DHT22;9574;47.282;9.640;2023-01-19T09:25:17;1.80;99.90
18884;DHT22;9574;47.282;9.640;2023-01-19T09:27:46;2.00;99.90
18884;DHT22;9574;47.282;9.640;2023-01-19T09:30:13;2.10;99.90
18884;DHT22;9574;47.282;9.640;2023-01-19T09:32:41;2.10;99.90
18884;DHT22;9574;47.282;9.640;2023-01-19T09:35:09;2.10;99.90
18884;DHT22;9574;47.282;9.640;2023-01-19T09:37:36;1.90;99.90
18884;DHT22;9574;47.282;9.640;2023-01-19T09:40:04;1.90;99.90
18884;DHT22;9574;47.282;9.640;2023-01-19T09:42:35;1.90;99.90
18884;DHT22;9574;47.282;9.640;2023-01-19T09:45:07;1.70;99.90
18884;DHT22;9574;47.282;9.640;2023-01-19T09:47:40;1.30;99.90
18884;DHT22;9574;47.282;9.640;2023-01-19T09:50:13;1.00;99.90
18884;DHT22;9574;47.282;9.640;2023-01-19T09:52:48;0.90;99.90
18884;DHT22;9574;47.282;9.640;2023-01-19T09:55:20;1.10;99.90
18884;DHT22;9574;47.282;9.640;2023-01-19T09:57:48;1.30;99.90
18884;DHT22;9574;47.282;9.640;2023-01-19T10:00:18;1.50;99.90
18884;DHT22;9574;47.282;9.640;2023-01-19T10:02:47;1.70;99.90
18884;DHT22;9574;47.282;9.640;2023-01-19T10:05:25;1.90;99.90
18884;DHT22;9574;47.282;9.640;2023-01-19T10:08:05;1.90;99.90
18884;DHT22;9574;47.282;9.640;2023-01-19T10:10:35;1.70;99.90
18884;DHT22;9574;47.282;9.640;2023-01-19T10:13:16;2.20;99.90
18884;DHT22;9574;47.282;9.640;2023-01-19T10:15:53;2.60;99.90
18884;DHT22;9574;47.282;9.640;2023-01-19T10:18:24;2.50;99.90
18884;DHT22;9574;47.282;9.640;2023-01-19T10:21:02;2.60;99.90
18884;DHT22;9574;47.282;9.640;2023-01-19T10:23:42;2.20;99.90
18884;DHT22;9574;47.282;9.640;2023-01-19T10:26:15;2.40;99.90
18884;DHT22;9574;47.282;9.640;2023-01-19T10:28:43;2.50;99.90
18884;DHT22;9574;47.282;9.640;2023-01-19T10:31:12;2.60;99.90
18884;DHT22;9574;47.282;9.640;2023-01-19T10:33:40;2.80;99.90
18884;DHT22;9574;47.282;9.640;2023-01-19T10:36:16;2.80;99.90
18884;DHT22;9574;47.282;9.640;2023-01-19T10:38:44;2.50;99.90
18884;DHT22;9574;47.282;9.640;2023-01-19T10:41:16;2.40;99.90
18884;DHT22;9574;47.282;9.640;2023-01-19T10:43:45;2.20;99.90
18884;DHT22;9574;47.282;9.640;2023-01-19T10:46:32;2.60;99.90
18884;DHT22;9574;47.282;9.640;2023-01-19T10:49:00;2.70;99.90
18884;DHT22;9574;47.282;9.640;2023-01-19T10:51:27;2.90;99.90
18884;DHT22;9574;47.282;9.640;2023-01-19T10:53:57;2.80;99.90
18884;DHT22;9574;47.282;9.640;2023-01-19T10:56:28;2.60;99.90
18884;DHT22;9574;47.282;9.640;2023-01-19T10:58:59;2.60;99.90
18884;DHT22;9574;47.282;9.640;2023-01-19T11:01:28;3.20;99.90
18884;DHT22;9574;47.282;9.640;2023-01-19T11:03:56;3.40;99.90
18884;DHT22;9574;47.282;9.640;2023-01-19T11:06:30;3.70;99.90
18884;DHT22;9574;47.282;9.640;2023-01-19T11:09:14;3.90;99.90
18884;DHT22;9574;47.282;9.640;2023-01-19T11:11:44;4.00;99.90
18884;DHT22;9574;47.282;9.640;2023-01-19T11:14:13;3.70;99.90
18884;DHT22;9574;47.282;9.640;2023-01-19T11:16:47;3.60;99.90
18884;DHT22;9574;47.282;9.640;2023-01-19T11:19:22;3.60;99.90
18884;DHT22;9574;47.282;9.640;2023-01-19T11:21:50;3.40;99.90
18884;DHT22;9574;47.282;9.640;2023-01-19T11:24:18;3.30;99.90
18884;DHT22;9574;47.282;9.640;2023-01-19T11:26:47;3.30;99.90
18884;DHT22;9574;47.282;9.640;2023-01-19T11:29:17;3.20;99.90
18884;DHT22;9574;47.282;9.640;2023-01-19T11:31:47;3.10;99.90
18884;DHT22;9574;47.282;9.640;2023-01-19T11:34:29;3.10;99.90
18884;DHT22;9574;47.282;9.640;2023-01-19T11:36:58;3.00;99.90
18884;DHT22;9574;47.282;9.640;2023-01-19T11:39:27;2.90;99.90
18884;DHT22;9574;47.282;9.640;2023-01-19T11:41:56;3.00;99.90
18884;DHT22;9574;47.282;9.640;2023-01-19T11:44:28;2.90;99.90
18884;DHT22;9574;47.282;9.640;2023-01-19T11:46:58;3.00;99.90
18884;DHT22;9574;47.282;9.640;2023-01-19T11:49:35;2.90;99.90
18884;DHT22;9574;47.282;9.640;2023-01-19T11:52:06;2.80;99.90
18884;DHT22;9574;47.282;9.640;2023-01-19T11:54:44;2.80;99.90
18884;DHT22;9574;47.282;9.640;2023-01-19T11:57:15;2.60;99.90
18884;DHT22;9574;47.282;9.640;2023-01-19T11:59:43;2.40;99.90
18884;DHT22;9574;47.282;9.640;2023-01-19T12:02:22;2.50;99.90
18884;DHT22;9574;47.282;9.640;2023-01-19T12:04:50;2.40;99.90
18884;DHT22;9574;47.282;9.640;2023-01-19T12:07:22;2.50;99.90
18884;DHT22;9574;47.282;9.640;2023-01-19T12:09:54;2.40;99.90
18884;DHT22;9574;47.282;9.640;2023-01-19T12:12:26;2.50;99.90
18884;DHT22;9574;47.282;9.640;2023-01-19T12:14:58;2.60;99.90
18884;DHT22;9574;47.282;9.640;2023-01-19T12:17:31;2.50;99.90
18884;DHT22;9574;47.282;9.640;2023-01-19T12:20:04;2.20;99.90
18884;DHT22;9574;47.282;9.640;2023-01-19T12:22:37;2.20;99.90
18884;DHT22;9574;47.282;9.640;2023-01-19T12:25:14;2.20;99.90
18884;DHT22;9574;47.282;9.640;2023-01-19T12:27:47;2.30;99.90
18884;DHT22;9574;47.282;9.640;2023-01-19T12:30:18;2.40;99.90
18884;DHT22;9574;47.282;9.640;2023-01-19T12:32:48;2.40;99.90
18884;DHT22;9574;47.282;9.640;2023-01-19T12:35:53;2.50;99.90
18884;DHT22;9574;47.282;9.640;2023-01-19T12:38:34;2.60;99.90
18884;DHT22;9574;47.282;9.640;2023-01-19T12:41:19;2.60;99.90
18884;DHT22;9574;47.282;9.640;2023-01-19T12:43:47;2.70;99.90
18884;DHT22;9574;47.282;9.640;2023-01-19T12:46:35;2.60;99.90
18884;DHT22;9574;47.282;9.640;2023-01-19T12:49:08;2.60;99.90
18884;DHT22;9574;47.282;9.640;2023-01-19T12:51:37;2.60;99.90
18884;DHT22;9574;47.282;9.640;2023-01-19T12:54:06;2.60;99.90
18884;DHT22;9574;47.282;9.640;2023-01-19T12:56:35;2.70;99.90
18884;DHT22;9574;47.282;9.640;2023-01-19T12:59:04;2.80;99.90
18884;DHT22;9574;47.282;9.640;2023-01-19T13:01:31;2.80;99.90
18884;DHT22;9574;47.282;9.640;2023-01-19T13:04:00;2.60;99.90
18884;DHT22;9574;47.282;9.640;2023-01-19T13:09:35;2.70;99.90
18884;DHT22;9574;47.282;9.640;2023-01-19T13:12:32;2.70;99.90
18884;DHT22;9574;47.282;9.640;2023-01-19T13:15:24;2.80;99.90
18884;DHT22;9574;47.282;9.640;2023-01-19T13:17:53;2.80;99.90
18884;DHT22;9574;47.282;9.640;2023-01-19T13:20:26;2.80;99.90
18884;DHT22;9574;47.282;9.640;2023-01-19T13:23:19;2.90;99.90
18884;DHT22;9574;47.282;9.640;2023-01-19T13:25:50;2.90;99.90
18884;DHT22;9574;47.282;9.640;2023-01-19T13:28:25;2.80;99.90
18884;DHT22;9574;47.282;9.640;2023-01-19T13:30:56;2.80;99.90
18884;DHT22;9574;47.282;9.640;2023-01-19T13:33:26;2.80;99.90
18884;DHT22;9574;47.282;9.640;2023-01-19T13:35:56;2.80;99.90
18884;DHT22;9574;47.282;9.640;2023-01-19T13:38:25;2.80;99.90
18884;DHT22;9574;47.282;9.640;2023-01-19T13:40:54;2.90;99.90
18884;DHT22;9574;47.282;9.640;2023-01-19T13:43:26;2.90;99.90
18884;DHT22;9574;47.282;9.640;2023-01-19T13:45:54;3.00;99.90
18884;DHT22;9574;47.282;9.640;2023-01-19T13:48:23;2.80;99.90
18884;DHT22;9574;47.282;9.640;2023-01-19T13:50:59;2.70;99.90
18884;DHT22;9574;47.282;9.640;2023-01-19T13:53:26;2.80;99.90
18884;DHT22;9574;47.282;9.640;2023-01-19T13:56:18;2.90;99.90
18884;DHT22;9574;47.282;9.640;2023-01-19T13:59:10;2.80;99.90
18884;DHT22;9574;47.282;9.640;2023-01-19T14:01:38;2.80;99.90
18884;DHT22;9574;47.282;9.640;2023-01-19T14:04:05;2.60;99.90
18884;DHT22;9574;47.282;9.640;2023-01-19T14:06:35;2.20;99.90
18884;DHT22;9574;47.282;9.640;2023-01-19T14:09:15;2.00;99.90
18884;DHT22;9574;47.282;9.640;2023-01-19T14:11:47;1.80;99.90
18884;DHT22;9574;47.282;9.640;2023-01-19T14:14:29;2.00;99.90
18884;DHT22;9574;47.282;9.640;2023-01-19T14:16:56;2.30;99.90
18884;DHT22;9574;47.282;9.640;2023-01-19T14:19:24;2.40;99.90
18884;DHT22;9574;47.282;9.640;2023-01-19T14:22:01;2.60;99.90
18884;DHT22;9574;47.282;9.640;2023-01-19T14:24:29;2.70;99.90
18884;DHT22;9574;47.282;9.640;2023-01-19T14:27:16;2.70;99.90
18884;DHT22;9574;47.282;9.640;2023-01-19T14:29:45;2.40;99.90
18884;DHT22;9574;47.282;9.640;2023-01-19T14:32:17;2.40;99.90
18884;DHT22;9574;47.282;9.640;2023-01-19T14:34:45;2.50;99.90
18884;DHT22;9574;47.282;9.640;2023-01-19T14:37:19;2.70;99.90
18884;DHT22;9574;47.282;9.640;2023-01-19T14:39:48;2.80;99.90
18884;DHT22;9574;47.282;9.640;2023-01-19T14:42:21;2.90;99.90
18884;DHT22;9574;47.282;9.640;2023-01-19T14:44:50;2.90;99.90
18884;DHT22;9574;47.282;9.640;2023-01-19T14:47:33;2.90;99.90
18884;DHT22;9574;47.282;9.640;2023-01-19T14:50:08;2.90;99.90
18884;DHT22;9574;47.282;9.640;2023-01-19T14:52:49;2.90;99.90
18884;DHT22;9574;47.282;9.640;2023-01-19T14:55:19;2.80;99.90
18884;DHT22;9574;47.282;9.640;2023-01-19T14:57:48;2.90;99.90
18884;DHT22;9574;47.282;9.640;2023-01-19T15:00:17;2.90;99.90
18884;DHT22;9574;47.282;9.640;2023-01-19T15:02:44;2.90;99.90
18884;DHT22;9574;47.282;9.640;2023-01-19T15:05:11;2.90;99.90
18884;DHT22;9574;47.282;9.640;2023-01-19T15:07:40;2.90;99.90
18884;DHT22;9574;47.282;9.640;2023-01-19T15:10:13;3.00;99.90
18884;DHT22;9574;47.282;9.640;2023-01-19T15:12:41;3.00;99.90
18884;DHT22;9574;47.282;9.640;2023-01-19T15:15:14;3.00;99.90
18884;DHT22;9574;47.282;9.640;2023-01-19T15:17:42;3.00;99.90
18884;DHT22;9574;47.282;9.640;2023-01-19T15:20:13;3.10;99.90
18884;DHT22;9574;47.282;9.640;2023-01-19T15:22:41;3.10;99.90
18884;DHT22;9574;47.282;9.640;2023-01-19T15:25:12;3.10;99.90
18884;DHT22;9574;47.282;9.640;2023-01-19T15:27:39;3.10;99.90
18884;DHT22;9574;47.282;9.640;2023-01-19T15:30:14;3.00;99.90
18884;DHT22;9574;47.282;9.640;2023-01-19T15:32:42;2.90;99.90
18884;DHT22;9574;47.282;9.640;2023-01-19T15:35:13;2.80;99.90
18884;DHT22;9574;47.282;9.640;2023-01-19T15:37:40;2.70;99.90
18884;DHT22;9574;47.282;9.640;2023-01-19T15:40:08;2.70;99.90
18884;DHT22;9574;47.282;9.640;2023-01-19T15:42:36;2.70;99.90
18884;DHT22;9574;47.282;9.640;2023-01-19T15:45:24;2.60;99.90
18884;DHT22;9574;47.282;9.640;2023-01-19T15:47:53;2.50;99.90
18884;DHT22;9574;47.282;9.640;2023-01-19T15:50:20;2.50;99.90
18884;DHT22;9574;47.282;9.640;2023-01-19T15:52:47;2.40;99.90
18884;DHT22;9574;47.282;9.640;2023-01-19T15:55:14;2.30;99.90
18884;DHT22;9574;47.282;9.640;2023-01-19T15:57:41;2.40;99.90
18884;DHT22;9574;47.282;9.640;2023-01-19T16:00:09;2.30;99.90
18884;DHT22;9574;47.282;9.640;2023-01-19T16:02:38;2.30;99.90
18884;DHT22;9574;47.282;9.640;2023-01-19T16:05:05;2.30;99.90
18884;DHT22;9574;47.282;9.640;2023-01-19T16:07:33;2.20;99.90
18884;DHT22;9574;47.282;9.640;2023-01-19T16:10:00;2.20;99.90
18884;DHT22;9574;47.282;9.640;2023-01-19T16:12:29;2.10;99.90
18884;DHT22;9574;47.282;9.640;2023-01-19T16:14:56;1.90;99.90
18884;DHT22;9574;47.282;9.640;2023-01-19T16:17:23;1.50;99.90
18884;DHT22;9574;47.282;9.640;2023-01-19T16:19:51;1.30;99.90
18884;DHT22;9574;47.282;9.640;2023-01-19T16:22:18;1.20;99.90